Vanzant, Kentucky
Current Conditions -  °F | °C
As of 1:56 PM on Wednesday 17 Dec 2014 (Local Time) from KOWB Reporting Station
Overcast Overcast  
Wind Chill: 30°   Ceiling: 2000
Heat Index: 35°   Visibility: 10mi
Dew Point: 27°   Wind: 6mph
Humidity: 73%   Direction: NA
Pressure: 30.27"   Gusts: NA
Location:  37.6217°N, 86.5365°W
Report Text: KOWB 171956Z VRB05KT 10SM OVC020 02/M03 A3027 RMK AO2 T00161027 SLP253
Loading
Personal Weather Stations






























Interactive Weather Map New forecast layout! Learn more

10-Day Weather Forecast

Advertisements
Track Severe Weather on mobile